createdAt,value
2017-07-26T00:01:34.525Z,18.11
2017-07-26T00:03:50.007Z,18.41
2017-07-26T00:06:13.810Z,18.21
2017-07-26T00:08:29.116Z,18.21
2017-07-26T00:10:52.935Z,18.09
2017-07-26T00:13:16.696Z,18.08
2017-07-26T00:15:32.052Z,18.31
2017-07-26T00:17:47.394Z,18.26
2017-07-26T00:20:11.235Z,18.06
2017-07-26T00:22:35.019Z,17.87
2017-07-26T00:24:41.962Z,17.88
2017-07-26T00:27:05.768Z,18.12
2017-07-26T00:29:29.550Z,18.02
2017-07-26T00:31:53.318Z,18.09
2017-07-26T00:34:17.108Z,18.34
2017-07-26T00:36:40.958Z,17.94
2017-07-26T00:39:04.844Z,18
2017-07-26T00:41:28.607Z,18.36
2017-07-26T00:43:38.447Z,18.48
2017-07-26T00:46:02.282Z,18.58
2017-07-26T00:48:17.674Z,18.55
2017-07-26T00:50:41.496Z,18.49
2017-07-26T00:52:56.897Z,18.6
2017-07-26T00:55:20.744Z,18.57
2017-07-26T00:57:44.629Z,18.48
2017-07-26T01:00:08.504Z,18.45
2017-07-26T01:02:32.336Z,18.13
2017-07-26T01:04:33.662Z,18.24
2017-07-26T01:06:34.946Z,18.36
2017-07-26T01:08:50.366Z,18.49
2017-07-26T01:11:05.752Z,18.42
2017-07-26T01:13:21.140Z,18.12
2017-07-26T01:15:44.931Z,17.9
2017-07-26T01:18:08.717Z,18.27
2017-07-26T01:20:32.507Z,18.27
2017-07-26T01:22:47.816Z,18.31
2017-07-26T01:25:03.180Z,18.13
2017-07-26T01:27:27.064Z,18.23
2017-07-26T01:29:50.789Z,18.31
2017-07-26T01:32:14.618Z,18.53
2017-07-26T01:34:07.525Z,18.15
2017-07-26T01:36:08.918Z,18.36
2017-07-26T01:38:32.733Z,18.41
2017-07-26T01:40:56.528Z,18.39
2017-07-26T01:43:11.898Z,18.51
2017-07-26T01:45:35.688Z,18.48
2017-07-26T01:47:59.470Z,18.21
2017-07-26T01:50:23.251Z,18.11
2017-07-26T01:52:38.632Z,18.23
2017-07-26T01:55:02.522Z,18.34
2017-07-26T01:57:26.405Z,18.03
2017-07-26T01:59:50.179Z,18.24
2017-07-26T02:02:05.554Z,18.36
2017-07-26T02:04:21.034Z,18.19
2017-07-26T02:06:44.907Z,18.37
2017-07-26T02:09:00.273Z,18.31
2017-07-26T02:11:24.158Z,18.36
2017-07-26T02:13:31.242Z,18.55
2017-07-26T02:15:32.542Z,18.55
2017-07-26T02:17:56.332Z,18.49
2017-07-26T02:20:20.101Z,18.34
2017-07-26T02:22:27.044Z,18.21
2017-07-26T02:24:50.847Z,18.36
2017-07-26T02:26:27.131Z,18.28
2017-07-26T02:28:50.930Z,18.24
2017-07-26T02:31:14.689Z,18.28
2017-07-26T02:33:30.029Z,18.39
2017-07-26T02:35:45.374Z,18.19
2017-07-26T02:38:00.743Z,18.37
2017-07-26T02:40:24.511Z,18.3
2017-07-26T02:42:48.286Z,18.19
2017-07-26T02:45:12.069Z,18.37
2017-07-26T02:47:35.944Z,18.41
2017-07-26T02:49:51.294Z,18.26
2017-07-26T02:52:15.095Z,18.18
2017-07-26T02:54:38.865Z,18.36
2017-07-26T02:57:02.746Z,18.34
2017-07-26T02:59:26.504Z,18.37
2017-07-26T03:01:50.221Z,18.09
2017-07-26T03:04:14.062Z,18.36
2017-07-26T03:06:29.420Z,18.21
2017-07-26T03:08:53.208Z,18.33
2017-07-26T03:11:08.596Z,18.19
2017-07-26T03:13:18.406Z,18.33
2017-07-26T03:15:42.215Z,18.31
2017-07-26T03:17:43.610Z,18.57
2017-07-26T03:19:58.986Z,18.48
2017-07-26T03:22:22.770Z,18.39
2017-07-26T03:24:46.493Z,18.37
2017-07-26T03:27:10.264Z,18.12
2017-07-26T03:29:34.038Z,18.36
2017-07-26T03:31:49.396Z,18.26
2017-07-26T03:34:13.164Z,18.23
2017-07-26T03:36:36.967Z,18.21
2017-07-26T03:39:03.391Z,18.21
2017-07-26T03:41:26.256Z,18.23
2017-07-26T03:43:50.024Z,18.31
2017-07-26T03:46:13.784Z,18.39
2017-07-26T03:48:29.183Z,18.27
2017-07-26T03:50:44.544Z,18.21
2017-07-26T03:53:09.767Z,18.24
2017-07-26T03:55:25.148Z,18.18
2017-07-26T03:57:49.025Z,18.13
2017-07-26T04:00:12.903Z,18.08
2017-07-26T04:02:14.691Z,18.09
2017-07-26T04:04:38.494Z,18.09
2017-07-26T04:07:02.291Z,18.28
2017-07-26T04:08:55.157Z,18.12
2017-07-26T04:11:18.971Z,17.82
2017-07-26T04:13:42.751Z,18.09
2017-07-26T04:16:06.455Z,18.06
2017-07-26T04:18:04.923Z,18.06
2017-07-26T04:20:20.272Z,18.16
2017-07-26T04:22:44.120Z,17.94
2017-07-26T04:24:45.417Z,17.9
2017-07-26T04:27:09.181Z,17.73
2017-07-26T04:29:32.922Z,17.44
2017-07-26T04:31:48.252Z,17.69
2017-07-26T04:34:11.989Z,17.84
2017-07-26T04:36:35.714Z,17.69
2017-07-26T04:38:59.433Z,17.84
2017-07-26T04:41:23.155Z,17.75
2017-07-26T04:43:32.972Z,17.9
2017-07-26T04:45:48.298Z,18.03
2017-07-26T04:48:12.027Z,18.06
2017-07-26T04:50:35.765Z,18
2017-07-26T04:52:59.505Z,18.06
2017-07-26T04:55:23.251Z,17.88
2017-07-26T04:57:47.078Z,17.91
2017-07-26T05:00:10.834Z,18.02
2017-07-26T05:02:34.624Z,17.91
2017-07-26T05:04:58.327Z,17.91
2017-07-26T05:07:22.173Z,17.9
2017-07-26T05:09:37.650Z,18.12
2017-07-26T05:11:47.471Z,18.06
2017-07-26T05:14:11.236Z,18
2017-07-26T05:16:18.138Z,18.24
2017-07-26T05:18:41.903Z,17.93
2017-07-26T05:21:05.617Z,18.21
2017-07-26T05:23:20.951Z,18.21
2017-07-26T05:25:36.310Z,18.19
2017-07-26T05:28:00.111Z,18.15
2017-07-26T05:30:24.006Z,17.84
2017-07-26T05:32:39.366Z,17.84
2017-07-26T05:35:03.125Z,18.19
2017-07-26T05:37:27.958Z,18.36
2017-07-26T05:39:51.734Z,18.12
2017-07-26T05:42:15.514Z,18.26
2017-07-26T05:44:40.474Z,18.46
2017-07-26T05:46:42.380Z,18.51
2017-07-26T05:49:06.044Z,18.37
2017-07-26T05:51:21.446Z,18.53
2017-07-26T05:53:45.203Z,18.64
2017-07-26T05:56:08.975Z,18.68
2017-07-26T05:58:32.798Z,18.52
2017-07-26T06:00:56.622Z,18.51
2017-07-26T06:03:20.412Z,18.55
2017-07-26T06:05:27.409Z,18.49
2017-07-26T06:07:51.222Z,18.58
2017-07-26T06:10:15.046Z,18.61
2017-07-26T06:12:30.461Z,18.68
2017-07-26T06:14:55.131Z,18.88
2017-07-26T06:17:18.931Z,19.07
2017-07-26T06:19:42.771Z,19
2017-07-26T06:22:06.597Z,18.88
2017-07-26T06:24:30.405Z,19.05
2017-07-26T06:26:54.270Z,19.09
2017-07-26T06:29:18.141Z,18.92
2017-07-26T06:31:33.558Z,19.17
2017-07-26T06:33:48.979Z,18.82
2017-07-26T06:36:12.836Z,18.53
2017-07-26T06:38:36.705Z,18.57
2017-07-26T06:40:47.032Z,18.57
2017-07-26T06:43:10.882Z,18.73
2017-07-26T06:45:34.699Z,19.07
2017-07-26T06:47:58.516Z,19.16
2017-07-26T06:50:13.902Z,19.48
2017-07-26T06:52:37.725Z,19.93
2017-07-26T06:55:01.579Z,19.75
2017-07-26T06:56:37.879Z,20.02
2017-07-26T06:59:01.782Z,19.78
2017-07-26T07:01:25.662Z,19.82
2017-07-26T07:03:41.149Z,19.78
2017-07-26T07:06:04.961Z,19.94
2017-07-26T07:08:29.851Z,19.9
2017-07-26T07:10:53.766Z,19.77
2017-07-26T07:13:17.674Z,19.71
2017-07-26T07:15:35.169Z,19.64
2017-07-26T07:18:00.055Z,19.37
2017-07-26T07:20:24.948Z,19.55
2017-07-26T07:22:48.857Z,19.53
2017-07-26T07:25:04.362Z,19.57
2017-07-26T07:27:19.824Z,19.75
2017-07-26T07:29:43.767Z,19.72
2017-07-26T07:31:59.177Z,19.6
2017-07-26T07:34:23.069Z,19.47
2017-07-26T07:36:46.987Z,19.41
2017-07-26T07:39:10.865Z,19.27
2017-07-26T07:41:12.608Z,19.39
2017-07-26T07:43:11.257Z,19.47
2017-07-26T07:45:35.112Z,19.49
2017-07-26T07:47:58.908Z,19.56
2017-07-26T07:50:14.325Z,19.48
2017-07-26T07:52:38.180Z,19.39
2017-07-26T07:54:53.702Z,19.12
2017-07-26T07:57:17.569Z,19.29
2017-07-26T07:59:41.433Z,19.49
2017-07-26T08:02:05.331Z,19.17
2017-07-26T08:04:29.188Z,18.89
2017-07-26T08:06:53.053Z,19.09
2017-07-26T08:09:17.881Z,18.96
2017-07-26T08:11:41.721Z,18.81
2017-07-26T08:14:05.654Z,18.92
2017-07-26T08:16:29.511Z,18.98
2017-07-26T08:18:53.392Z,19.11
2017-07-26T08:21:17.277Z,19.48
2017-07-26T08:23:41.143Z,19.42
2017-07-26T08:26:05.032Z,19.15
2017-07-26T08:28:28.889Z,19.15
2017-07-26T08:30:52.776Z,19.32
2017-07-26T08:33:16.584Z,19.66
2017-07-26T08:35:40.408Z,19.92
2017-07-26T08:38:04.322Z,19.78
2017-07-26T08:40:29.158Z,20
2017-07-26T08:42:44.679Z,19.97
2017-07-26T08:45:00.157Z,20.15
2017-07-26T08:47:24.081Z,20.07
2017-07-26T08:49:49.040Z,20.32
2017-07-26T08:52:05.514Z,20.4
2017-07-26T08:54:29.448Z,20
2017-07-26T08:56:53.403Z,20.18
2017-07-26T08:59:17.318Z,20.26
2017-07-26T09:01:32.836Z,20.64
2017-07-26T09:03:48.361Z,20.56
2017-07-26T09:06:12.304Z,20.37
2017-07-26T09:08:37.255Z,20.58
2017-07-26T09:11:01.228Z,21.22
2017-07-26T09:13:25.215Z,21.33
2017-07-26T09:15:49.191Z,21.38
2017-07-26T09:18:15.228Z,21.01
2017-07-26T09:20:40.286Z,21.13
2017-07-26T09:22:50.670Z,21.37
2017-07-26T09:25:14.749Z,21.38
2017-07-26T09:27:38.753Z,21.35
2017-07-26T09:30:02.832Z,22.14
2017-07-26T09:32:26.850Z,22.23
2017-07-26T09:34:50.959Z,22.52
2017-07-26T09:37:15.006Z,22.89
2017-07-26T09:39:39.045Z,23.04
2017-07-26T09:42:03.086Z,23.11
2017-07-26T09:44:28.283Z,23.82
2017-07-26T09:46:52.364Z,23.85
2017-07-26T09:49:16.647Z,23.92
2017-07-26T09:51:40.938Z,24.1
2017-07-26T09:54:05.072Z,24.46
2017-07-26T09:56:29.302Z,24.74
2017-07-26T09:58:53.515Z,25.31
2017-07-26T10:01:09.368Z,25.19
2017-07-26T10:03:33.711Z,25.18
2017-07-26T10:05:58.058Z,24.99
2017-07-26T10:08:22.540Z,25.06
2017-07-26T10:10:46.837Z,25.25
2017-07-26T10:13:11.140Z,23.99
2017-07-26T10:15:35.500Z,24.11
2017-07-26T10:18:00.970Z,23.55
2017-07-26T10:20:25.139Z,23.08
2017-07-26T10:22:49.323Z,22.63
2017-07-26T10:25:13.573Z,22.47
2017-07-26T10:27:29.370Z,22.3
2017-07-26T10:29:53.513Z,22.63
2017-07-26T10:32:17.692Z,22.73
2017-07-26T10:34:42.856Z,23.01
2017-07-26T10:37:08.015Z,23.16
2017-07-26T10:39:32.221Z,22.95
2017-07-26T10:41:56.390Z,22.56
2017-07-26T10:44:20.512Z,22.22
2017-07-26T10:46:44.777Z,22.38
2017-07-26T10:49:08.833Z,21.96
2017-07-26T10:51:33.043Z,21.54
2017-07-26T10:53:57.257Z,22.01
2017-07-26T10:56:21.362Z,22.68
2017-07-26T10:58:45.365Z,22.95
2017-07-26T11:01:09.592Z,23.51
2017-07-26T11:03:20.074Z,24.1
2017-07-26T11:05:44.315Z,24.1
2017-07-26T11:08:08.556Z,23.48
2017-07-26T11:10:32.820Z,23.74
2017-07-26T11:12:43.276Z,24.07
2017-07-26T11:15:07.620Z,24.68
2017-07-26T11:17:34.006Z,24.86
2017-07-26T11:20:05.011Z,24.43
2017-07-26T11:22:30.726Z,24.18
2017-07-26T11:24:55.080Z,24.21
2017-07-26T11:27:19.462Z,23.73
2017-07-26T11:29:43.800Z,23.16
2017-07-26T11:31:59.646Z,23.67
2017-07-26T11:34:15.516Z,23.96
2017-07-26T11:36:31.321Z,24.1
2017-07-26T11:38:47.166Z,23.85
2017-07-26T11:41:11.420Z,22.58
2017-07-26T11:43:35.670Z,22.22
2017-07-26T11:45:59.919Z,21.8
2017-07-26T11:48:10.334Z,22
2017-07-26T11:50:34.539Z,21.44
2017-07-26T11:52:58.660Z,21.68
2017-07-26T11:55:22.779Z,21.59
2017-07-26T11:57:46.917Z,21.08
2017-07-26T12:00:02.600Z,21.01
2017-07-26T12:02:26.680Z,21.17
2017-07-26T12:04:42.315Z,21.28
2017-07-26T12:06:57.943Z,21.51
2017-07-26T12:09:05.159Z,21.72
2017-07-26T12:11:29.176Z,22
2017-07-26T12:13:53.206Z,22.33
2017-07-26T12:16:17.282Z,23.01
2017-07-26T12:18:41.338Z,23.33
2017-07-26T12:21:05.514Z,23.73
2017-07-26T12:23:29.554Z,23.33
2017-07-26T12:25:53.764Z,23.14
2017-07-26T12:28:17.907Z,22.68
2017-07-26T12:30:42.178Z,22.63
2017-07-26T12:33:06.201Z,22.59
2017-07-26T12:35:30.341Z,22.21
2017-07-26T12:37:54.477Z,22.22
2017-07-26T12:40:18.594Z,22
2017-07-26T12:42:42.638Z,21.99
2017-07-26T12:45:06.693Z,21.72
2017-07-26T12:47:30.784Z,21.88
2017-07-26T12:49:54.864Z,21.91
2017-07-26T12:52:18.942Z,22.1
2017-07-26T12:54:43.094Z,22.14
2017-07-26T12:57:07.101Z,22.12
2017-07-26T12:59:32.182Z,22.18
2017-07-26T13:01:57.290Z,22.16
2017-07-26T13:04:21.377Z,22.33
2017-07-26T13:06:45.467Z,22.38
2017-07-26T13:09:09.592Z,22.67
2017-07-26T13:11:33.657Z,22.76
2017-07-26T13:13:57.750Z,22.98
2017-07-26T13:16:23.885Z,22.81
2017-07-26T13:18:47.977Z,23.04
2017-07-26T13:21:12.120Z,23.33
2017-07-26T13:23:36.244Z,23.81
2017-07-26T13:26:01.452Z,24.09
2017-07-26T13:28:25.647Z,24.25
2017-07-26T13:30:49.864Z,23.99
2017-07-26T13:33:22.690Z,23.99
2017-07-26T13:35:46.937Z,24.09
2017-07-26T13:38:11.148Z,24.25
2017-07-26T13:40:35.372Z,24.44
2017-07-26T13:42:59.720Z,24.53
2017-07-26T13:45:23.842Z,24.48
2017-07-26T13:47:48.108Z,24.24
2017-07-26T13:50:13.285Z,23.69
2017-07-26T13:52:37.456Z,23.82
2017-07-26T13:55:01.711Z,23.59
2017-07-26T13:57:25.967Z,23.86
2017-07-26T13:59:52.257Z,24.11
2017-07-26T14:02:16.511Z,23.86
2017-07-26T14:04:40.732Z,24.43
2017-07-26T14:07:04.948Z,24.11
2017-07-26T14:09:29.212Z,24.28
2017-07-26T14:11:54.465Z,24.21
2017-07-26T14:14:19.680Z,24
2017-07-26T14:16:43.916Z,23.82
2017-07-26T14:19:08.198Z,23.84
2017-07-26T14:21:32.367Z,23.88
2017-07-26T14:23:58.622Z,23.66
2017-07-26T14:26:22.867Z,23.73
2017-07-26T14:28:47.091Z,23.74
2017-07-26T14:31:11.374Z,23.96
2017-07-26T14:33:35.661Z,24.32
2017-07-26T14:35:37.573Z,24.31
2017-07-26T14:37:53.397Z,24.82
2017-07-26T14:40:17.703Z,24.77
2017-07-26T14:42:42.037Z,24.82
2017-07-26T14:45:06.292Z,25.11
2017-07-26T14:47:31.000Z,24.79
2017-07-26T14:49:55.098Z,24.89
2017-07-26T14:52:19.380Z,24.55
2017-07-26T14:54:43.774Z,24.62
2017-07-26T14:57:08.094Z,24.47
2017-07-26T14:59:32.435Z,24.18
2017-07-26T15:01:56.771Z,24.1
2017-07-26T15:04:21.068Z,24.22
2017-07-26T15:06:45.366Z,24.32
2017-07-26T15:09:09.666Z,24.74
2017-07-26T15:11:11.085Z,25.12
2017-07-26T15:13:35.432Z,25.52
2017-07-26T15:15:59.757Z,25.43
2017-07-26T15:18:24.086Z,25.4
2017-07-26T15:20:48.449Z,24.66
2017-07-26T15:23:12.747Z,24.53
2017-07-26T15:25:37.170Z,24.61
2017-07-26T15:27:53.023Z,24.25
2017-07-26T15:30:17.355Z,24.19
2017-07-26T15:32:41.657Z,24.28
2017-07-26T15:35:07.051Z,24.46
2017-07-26T15:37:32.358Z,24.43
2017-07-26T15:39:56.662Z,24.58
2017-07-26T15:42:20.936Z,24.79
2017-07-26T15:44:45.323Z,24.88
2017-07-26T15:46:52.712Z,24.97
2017-07-26T15:49:08.601Z,25.19
2017-07-26T15:51:16.016Z,25.18
2017-07-26T15:53:40.303Z,25.29
2017-07-26T15:56:04.669Z,25.58
2017-07-26T15:58:20.536Z,25.77
2017-07-26T16:00:44.802Z,25.77
2017-07-26T16:03:10.268Z,25.66
2017-07-26T16:05:34.611Z,25.56
2017-07-26T16:07:58.985Z,25.63
2017-07-26T16:10:00.925Z,25.22
2017-07-26T16:12:16.881Z,25.37
2017-07-26T16:14:32.824Z,25.56
2017-07-26T16:16:57.187Z,25.62
2017-07-26T16:19:21.556Z,25.09
2017-07-26T16:21:45.908Z,25.24
2017-07-26T16:24:10.248Z,25.67
2017-07-26T16:26:34.592Z,25.58
2017-07-26T16:28:50.525Z,25.8
2017-07-26T16:31:06.429Z,26.19
2017-07-26T16:33:22.342Z,26.29
2017-07-26T16:35:46.769Z,25.81
2017-07-26T16:38:12.185Z,25.96
2017-07-26T16:40:36.580Z,26.18
2017-07-26T16:43:00.946Z,25.91
2017-07-26T16:45:32.324Z,25.96
2017-07-26T16:47:56.767Z,25.83
2017-07-26T16:52:43.390Z,25.71
2017-07-26T16:56:44.363Z,25.39
2017-07-26T16:59:15.838Z,25.56
2017-07-26T17:01:40.127Z,25.36
2017-07-26T17:04:04.645Z,25.68
2017-07-26T17:06:20.687Z,25.36
2017-07-26T17:08:45.052Z,25.48
2017-07-26T17:11:09.505Z,25.41
2017-07-26T17:13:33.903Z,25.4
2017-07-26T17:15:49.891Z,25.59
2017-07-26T17:18:05.872Z,25.83
2017-07-26T17:20:21.783Z,25.85
2017-07-26T17:22:37.777Z,25.78
2017-07-26T17:25:02.176Z,25.52
2017-07-26T17:27:26.731Z,25.95
2017-07-26T17:29:28.693Z,25.78
2017-07-26T17:31:44.702Z,25.81
2017-07-26T17:34:09.097Z,25.96
2017-07-26T17:36:33.498Z,25.76
2017-07-26T17:38:57.928Z,25.8
2017-07-26T17:41:22.468Z,25.83
2017-07-26T17:43:46.868Z,25.77
2017-07-26T17:46:11.274Z,25.58
2017-07-26T17:48:35.750Z,25.49
2017-07-26T17:51:00.217Z,25.61
2017-07-26T17:53:24.690Z,25.26
2017-07-26T17:55:48.892Z,25.39
2017-07-26T17:58:13.369Z,25.34
2017-07-26T18:00:37.703Z,25.16
2017-07-26T18:03:02.020Z,25.06
2017-07-26T18:05:26.321Z,24.78
2017-07-26T18:07:50.667Z,24.65
2017-07-26T18:10:16.058Z,24.63
2017-07-26T18:12:40.345Z,24.44
2017-07-26T18:15:04.593Z,24.25
2017-07-26T18:17:28.862Z,24.18
2017-07-26T18:19:53.129Z,23.99
2017-07-26T18:22:08.942Z,23.96
2017-07-26T18:24:33.188Z,23.91
2017-07-26T18:26:57.454Z,23.88
2017-07-26T18:29:21.661Z,23.74
2017-07-26T18:31:37.462Z,23.66
2017-07-26T18:34:01.678Z,23.66
2017-07-26T18:36:25.900Z,23.47
2017-07-26T18:38:50.094Z,23.34
2017-07-26T18:41:00.538Z,23.29
2017-07-26T18:43:24.744Z,23.29
2017-07-26T18:45:48.934Z,23.32
2017-07-26T18:48:04.596Z,23.26
2017-07-26T18:50:28.791Z,23.17
2017-07-26T18:52:53.010Z,23.2
2017-07-26T18:55:17.169Z,23.36
2017-07-26T18:57:41.320Z,23.18
2017-07-26T19:00:05.452Z,23.1
2017-07-26T19:02:29.592Z,23.08
2017-07-26T19:04:53.707Z,23.07
2017-07-26T19:07:04.148Z,23.2
2017-07-26T19:09:28.338Z,22.95
2017-07-26T19:11:52.484Z,22.92
2017-07-26T19:14:16.637Z,22.77
2017-07-26T19:16:40.811Z,22.78
2017-07-26T19:19:04.946Z,22.71
2017-07-26T19:21:29.169Z,22.83
2017-07-26T19:23:53.310Z,22.89
2017-07-26T19:26:17.401Z,22.67
2017-07-26T19:28:41.476Z,22.71
2017-07-26T19:31:05.569Z,22.78
2017-07-26T19:33:29.683Z,22.8
2017-07-26T19:35:53.785Z,22.68
2017-07-26T19:38:17.918Z,22.68
2017-07-26T19:40:42.030Z,22.46
2017-07-26T19:43:06.171Z,22.36
2017-07-26T19:45:30.278Z,22.58
2017-07-26T19:47:54.588Z,22.49
2017-07-26T19:50:18.785Z,22.33
2017-07-26T19:52:42.865Z,22.26
2017-07-26T19:55:07.165Z,22
2017-07-26T19:56:44.261Z,21.91
2017-07-26T19:59:10.300Z,21.92
2017-07-26T20:01:41.643Z,22
2017-07-26T20:04:06.205Z,21.78
2017-07-26T20:06:30.390Z,21.77
2017-07-26T20:08:55.132Z,21.68
2017-07-26T20:11:21.027Z,21.7
2017-07-26T20:13:45.425Z,21.63
2017-07-26T20:16:17.399Z,21.68
2017-07-26T20:18:41.528Z,21.6
2017-07-26T20:21:05.516Z,21.44
2017-07-26T20:23:29.539Z,21.54
2017-07-26T20:25:53.694Z,21.35
2017-07-26T20:28:18.529Z,21.43
2017-07-26T20:30:42.837Z,21.44
2017-07-26T20:32:29.094Z,21.43
2017-07-26T20:38:19.229Z,21.48
2017-07-26T20:40:43.474Z,21.33
2017-07-26T20:43:09.562Z,21.35
2017-07-26T20:45:33.442Z,21.35
2017-07-26T20:47:57.484Z,21.41
2017-07-26T20:50:21.475Z,21.41
2017-07-26T20:53:02.761Z,21.19
2017-07-26T20:55:27.093Z,21.13
2017-07-26T20:57:51.428Z,21.25
2017-07-26T21:00:15.446Z,21.26
2017-07-26T21:02:39.463Z,21.25
2017-07-26T21:05:03.527Z,21.25
2017-07-26T21:07:29.531Z,21.13
2017-07-26T21:09:53.558Z,21.17
2017-07-26T21:11:30.258Z,21.05
2017-07-26T21:13:54.469Z,21.08
2017-07-26T21:16:18.673Z,21.2
2017-07-26T21:18:42.565Z,21.2
2017-07-26T21:21:06.593Z,21.23
2017-07-26T21:23:30.871Z,21.19
2017-07-26T21:27:31.135Z,21.22
2017-07-26T21:29:55.087Z,21.23
2017-07-26T21:32:06.350Z,21.2
2017-07-26T21:34:30.450Z,21.17
2017-07-26T21:36:54.384Z,21.15
2017-07-26T21:39:18.387Z,21.17
2017-07-26T21:41:42.389Z,20.93
2017-07-26T21:44:06.372Z,21.05
2017-07-26T21:46:32.355Z,20.85
2017-07-26T21:49:03.232Z,20.78
2017-07-26T21:51:27.179Z,20.85
2017-07-26T21:53:51.142Z,20.73
2017-07-26T21:56:15.100Z,20.7
2017-07-26T21:58:39.071Z,20.74
2017-07-26T22:02:39.232Z,20.73
2017-07-26T22:05:03.187Z,20.6
2017-07-26T22:07:27.188Z,20.85
2017-07-26T22:09:51.203Z,20.66
2017-07-26T22:12:15.157Z,20.66
2017-07-26T22:16:15.299Z,20.6
2017-07-26T22:18:39.336Z,20.36
2017-07-26T22:21:03.245Z,20.46
2017-07-26T22:23:27.165Z,20.22
2017-07-26T22:25:51.172Z,20.18
2017-07-26T22:28:15.107Z,20.21
2017-07-26T22:30:25.465Z,20.29
2017-07-26T22:32:49.461Z,20.15
2017-07-26T22:35:13.412Z,20.15
2017-07-26T22:37:37.365Z,20.22
2017-07-26T22:39:52.899Z,20.18
2017-07-26T22:42:16.838Z,20.12
2017-07-26T22:44:40.752Z,20.18
2017-07-26T22:47:04.708Z,20.14
2017-07-26T22:49:29.682Z,20.15
2017-07-26T22:51:53.639Z,20.02
2017-07-26T22:54:17.632Z,20.12
2017-07-26T22:56:41.557Z,20.02
2017-07-26T22:59:05.527Z,20.14
2017-07-26T23:03:06.419Z,20.14
2017-07-26T23:05:30.410Z,20.1
2017-07-26T23:07:54.361Z,20.02
2017-07-26T23:10:18.282Z,20.17
2017-07-26T23:12:42.225Z,20.19
2017-07-26T23:15:06.172Z,20.46
2017-07-26T23:17:30.110Z,20.52
2017-07-26T23:19:54.038Z,20.63
2017-07-26T23:22:19.976Z,20.74
2017-07-26T23:24:59.524Z,20.75
2017-07-26T23:27:23.479Z,20.74
2017-07-26T23:29:47.535Z,20.71
2017-07-26T23:32:11.492Z,20.63
2017-07-26T23:34:35.433Z,20.68
2017-07-26T23:36:59.383Z,20.66
2017-07-26T23:39:32.019Z,20.8
2017-07-26T23:41:56.021Z,20.75
2017-07-26T23:44:19.982Z,20.73
2017-07-26T23:46:43.949Z,20.88
2017-07-26T23:49:07.915Z,20.8
2017-07-26T23:51:31.926Z,20.74
2017-07-26T23:54:12.528Z,20.73
2017-07-26T23:56:36.545Z,20.66
2017-07-26T23:59:00.496Z,20.92
